createdAt,value
2022-12-29T00:00:10.615Z,0.73
2022-12-29T00:02:41.709Z,0.90
2022-12-29T00:05:09.222Z,1.03
2022-12-29T00:07:36.350Z,2.87
2022-12-29T00:10:03.735Z,1.47
2022-12-29T00:12:50.739Z,1.80
2022-12-29T00:15:36.504Z,1.10
2022-12-29T00:18:03.729Z,0.70
2022-12-29T00:20:49.560Z,0.90
2022-12-29T00:23:35.614Z,0.97
2022-12-29T00:26:23.358Z,0.83
2022-12-29T00:29:09.875Z,0.80
2022-12-29T00:31:55.733Z,0.90
2022-12-29T00:34:52.432Z,0.87
2022-12-29T00:37:39.686Z,3.90
2022-12-29T00:40:25.789Z,1.07
2022-12-29T00:43:16.622Z,1.20
2022-12-29T00:45:44.052Z,0.93
2022-12-29T00:48:11.082Z,1.27
2022-12-29T00:50:38.143Z,2.77
2022-12-29T00:53:05.250Z,0.90
2022-12-29T00:55:32.287Z,0.40
2022-12-29T00:57:59.447Z,1.47
2022-12-29T01:00:27.156Z,0.60
2022-12-29T01:02:54.300Z,0.60
2022-12-29T01:05:21.423Z,1.93
2022-12-29T01:07:48.510Z,1.10
2022-12-29T01:10:16.079Z,3.40
2022-12-29T01:12:43.171Z,0.70
2022-12-29T01:15:13.024Z,0.30
2022-12-29T01:17:40.096Z,0.60
2022-12-29T01:20:07.568Z,0.53
2022-12-29T01:22:35.850Z,0.70
2022-12-29T01:25:02.921Z,0.40
2022-12-29T01:27:29.980Z,0.50
2022-12-29T01:29:56.995Z,0.57
2022-12-29T01:32:23.993Z,0.70
2022-12-29T01:34:50.645Z,0.63
2022-12-29T01:37:17.760Z,0.80
2022-12-29T01:39:44.644Z,0.60
2022-12-29T01:42:19.272Z,0.53
2022-12-29T01:44:54.958Z,0.50
2022-12-29T01:47:39.857Z,0.40
2022-12-29T01:50:30.693Z,0.97
2022-12-29T01:53:12.604Z,0.57
2022-12-29T01:55:43.615Z,0.63
2022-12-29T01:58:14.152Z,0.60
2022-12-29T02:00:41.446Z,0.60
2022-12-29T02:03:10.282Z,1.67
2022-12-29T02:05:55.967Z,0.50
2022-12-29T02:08:26.656Z,0.83
2022-12-29T02:10:54.447Z,0.40
2022-12-29T02:13:26.008Z,0.67
2022-12-29T02:16:15.622Z,2.83
2022-12-29T02:18:59.539Z,1.30
2022-12-29T02:21:55.135Z,1.90
2022-12-29T02:24:56.573Z,0.43
2022-12-29T02:27:56.415Z,0.60
2022-12-29T02:30:46.425Z,0.40
2022-12-29T02:33:13.504Z,0.67
2022-12-29T02:36:13.423Z,0.70
2022-12-29T02:39:10.858Z,0.30
2022-12-29T02:42:10.985Z,0.40
2022-12-29T02:44:53.352Z,0.70
2022-12-29T02:47:31.026Z,0.40
2022-12-29T02:50:16.017Z,0.77
2022-12-29T02:53:00.296Z,1.37
2022-12-29T02:55:27.278Z,0.40
2022-12-29T02:58:21.765Z,0.30
2022-12-29T03:01:21.916Z,1.13
2022-12-29T03:04:20.054Z,0.30
2022-12-29T03:07:15.974Z,0.53
2022-12-29T03:10:09.861Z,0.40
2022-12-29T03:13:05.497Z,0.90
2022-12-29T03:15:59.060Z,0.50
2022-12-29T03:18:46.014Z,0.23
2022-12-29T03:21:47.394Z,0.73
2022-12-29T03:24:20.755Z,0.30
2022-12-29T03:26:50.270Z,0.33
2022-12-29T03:29:21.131Z,0.20
2022-12-29T03:31:50.725Z,0.60
2022-12-29T03:34:20.739Z,0.40
2022-12-29T03:36:59.468Z,0.43
2022-12-29T03:39:26.766Z,0.30
2022-12-29T03:42:03.719Z,0.40
2022-12-29T03:44:40.004Z,0.30
2022-12-29T03:47:07.746Z,0.30
2022-12-29T03:49:35.109Z,0.40
2022-12-29T03:52:04.393Z,0.30
2022-12-29T03:54:33.595Z,0.87
2022-12-29T03:57:01.286Z,0.40
2022-12-29T03:59:43.683Z,1.33
2022-12-29T04:02:12.022Z,0.40
2022-12-29T04:04:39.435Z,2.10
2022-12-29T04:07:07.469Z,0.30
2022-12-29T04:09:34.914Z,0.40
2022-12-29T04:12:03.106Z,0.40
2022-12-29T04:14:30.199Z,0.47
2022-12-29T04:16:57.526Z,0.30
2022-12-29T04:19:24.565Z,0.57
2022-12-29T04:21:51.719Z,0.43
2022-12-29T04:24:18.936Z,0.40
2022-12-29T04:26:48.290Z,0.43
2022-12-29T04:29:47.573Z,0.30
2022-12-29T04:32:47.079Z,1.00
2022-12-29T04:35:14.196Z,2.17
2022-12-29T04:37:41.281Z,0.47
2022-12-29T04:40:08.829Z,1.43
2022-12-29T04:42:35.981Z,0.77
2022-12-29T04:45:04.089Z,0.47
2022-12-29T04:47:38.423Z,0.30
2022-12-29T04:50:25.273Z,0.37
2022-12-29T04:52:56.966Z,0.60
2022-12-29T04:55:24.153Z,0.93
2022-12-29T04:57:51.295Z,0.50
2022-12-29T05:00:20.052Z,0.60
2022-12-29T05:02:48.125Z,1.27
2022-12-29T05:05:15.745Z,0.40
2022-12-29T05:07:47.064Z,0.87
2022-12-29T05:10:14.109Z,0.30
2022-12-29T05:12:41.659Z,0.20
2022-12-29T05:15:10.085Z,1.40
2022-12-29T05:17:38.255Z,0.37
2022-12-29T05:20:07.456Z,0.50
2022-12-29T05:22:36.287Z,0.30
2022-12-29T05:25:03.512Z,0.50
2022-12-29T05:27:32.768Z,0.30
2022-12-29T05:30:20.554Z,0.20
2022-12-29T05:32:48.013Z,0.47
2022-12-29T05:35:15.172Z,0.40
2022-12-29T05:37:42.233Z,0.60
2022-12-29T05:40:09.763Z,0.40
2022-12-29T05:42:37.502Z,0.20
2022-12-29T05:45:33.526Z,0.30
2022-12-29T05:48:25.670Z,0.30
2022-12-29T05:51:17.591Z,0.53
2022-12-29T05:53:54.858Z,0.20
2022-12-29T05:56:23.170Z,0.30
2022-12-29T05:58:57.499Z,0.57
2022-12-29T06:01:25.296Z,0.40
2022-12-29T06:03:52.497Z,0.40
2022-12-29T06:06:20.824Z,0.97
2022-12-29T06:08:48.139Z,0.77
2022-12-29T06:11:15.233Z,0.40
2022-12-29T06:13:49.357Z,0.50
2022-12-29T06:16:16.503Z,0.40
2022-12-29T06:18:44.218Z,0.40
2022-12-29T06:21:11.570Z,0.30
2022-12-29T06:23:38.677Z,0.80
2022-12-29T06:26:05.973Z,0.40
2022-12-29T06:28:33.668Z,0.73
2022-12-29T06:31:03.030Z,0.37
2022-12-29T06:33:30.531Z,0.67
2022-12-29T06:35:57.961Z,0.57
2022-12-29T06:38:25.068Z,0.30
2022-12-29T06:40:52.152Z,2.40
2022-12-29T06:43:39.075Z,0.40
2022-12-29T06:46:17.308Z,1.97
2022-12-29T06:48:44.396Z,1.23
2022-12-29T06:51:11.497Z,0.40
2022-12-29T06:53:38.571Z,0.30
2022-12-29T06:56:05.856Z,0.57
2022-12-29T06:58:32.894Z,0.50
2022-12-29T07:01:00.313Z,1.47
2022-12-29T07:03:27.456Z,0.30
2022-12-29T07:05:55.375Z,1.03
2022-12-29T07:08:22.488Z,0.57
2022-12-29T07:10:49.517Z,0.53
2022-12-29T07:13:16.567Z,3.47
2022-12-29T07:15:43.633Z,0.60
2022-12-29T07:18:10.301Z,1.17
2022-12-29T07:20:37.439Z,0.77
2022-12-29T07:23:04.473Z,0.60
2022-12-29T07:25:31.549Z,0.50
2022-12-29T07:27:58.583Z,1.23
2022-12-29T07:30:25.603Z,0.20
2022-12-29T07:32:52.621Z,1.67
2022-12-29T07:35:19.870Z,0.40
2022-12-29T07:37:46.906Z,1.10
2022-12-29T07:40:14.224Z,1.03
2022-12-29T07:42:41.295Z,1.17
2022-12-29T07:45:10.532Z,1.90
2022-12-29T07:47:50.119Z,0.40
2022-12-29T07:50:17.316Z,0.50
2022-12-29T07:52:45.671Z,0.30
2022-12-29T07:55:12.699Z,0.47
2022-12-29T07:57:39.754Z,0.63
2022-12-29T08:00:07.121Z,0.47
2022-12-29T08:02:39.011Z,1.10
2022-12-29T08:05:06.346Z,0.70
2022-12-29T08:07:33.504Z,3.17
2022-12-29T08:10:00.525Z,5.50
2022-12-29T08:12:27.594Z,2.00
2022-12-29T08:14:54.166Z,1.23
2022-12-29T08:17:21.245Z,2.77
2022-12-29T08:19:48.349Z,1.23
2022-12-29T08:22:15.689Z,2.67
2022-12-29T08:24:42.728Z,1.33
2022-12-29T08:27:17.986Z,1.33
2022-12-29T08:29:47.285Z,1.53
2022-12-29T08:32:14.536Z,2.93
2022-12-29T08:34:41.583Z,8.50
2022-12-29T08:37:08.287Z,4.77
2022-12-29T08:39:35.567Z,3.53
2022-12-29T08:42:02.622Z,3.97
2022-12-29T08:44:29.689Z,4.10
2022-12-29T08:46:56.756Z,1.70
2022-12-29T08:49:23.938Z,1.50
2022-12-29T08:51:51.480Z,1.27
2022-12-29T08:54:18.502Z,0.63
2022-12-29T08:56:45.914Z,1.37
2022-12-29T08:59:14.480Z,1.63
2022-12-29T09:01:42.736Z,1.47
2022-12-29T09:04:15.663Z,0.60
2022-12-29T09:06:44.216Z,1.97
2022-12-29T09:09:11.951Z,1.60
2022-12-29T09:11:39.109Z,3.00
2022-12-29T09:14:06.199Z,1.97
2022-12-29T09:16:33.507Z,2.77
2022-12-29T09:19:01.110Z,1.40
2022-12-29T09:21:28.235Z,4.90
2022-12-29T09:23:55.271Z,1.30
2022-12-29T09:26:21.975Z,2.97
2022-12-29T09:28:49.098Z,2.93
2022-12-29T09:31:16.228Z,5.40
2022-12-29T09:33:43.290Z,4.60
2022-12-29T09:36:10.000Z,4.40
2022-12-29T09:38:37.096Z,5.83
2022-12-29T09:41:15.736Z,1.97
2022-12-29T09:44:09.662Z,2.13
2022-12-29T09:46:42.302Z,4.50
2022-12-29T09:49:20.621Z,1.97
2022-12-29T09:51:52.038Z,1.43
2022-12-29T09:55:00.075Z,2.03
2022-12-29T09:57:38.938Z,1.93
2022-12-29T10:00:20.999Z,4.50
2022-12-29T10:02:55.918Z,1.67
2022-12-29T10:05:22.961Z,4.00
2022-12-29T10:08:13.996Z,2.50
2022-12-29T10:10:54.697Z,3.13
2022-12-29T10:13:29.458Z,3.43
2022-12-29T10:16:06.341Z,2.27
2022-12-29T10:19:16.917Z,6.03
2022-12-29T10:22:13.407Z,2.33
2022-12-29T10:24:40.747Z,2.57
2022-12-29T10:27:13.331Z,2.50
2022-12-29T10:29:52.109Z,1.40
2022-12-29T10:32:31.177Z,2.80
2022-12-29T10:35:05.845Z,3.73
2022-12-29T10:37:57.464Z,2.07
2022-12-29T10:40:28.864Z,3.03
2022-12-29T10:42:58.017Z,1.13
2022-12-29T10:45:29.924Z,2.90
2022-12-29T10:48:33.344Z,1.93
2022-12-29T10:51:03.014Z,1.67
2022-12-29T10:53:47.053Z,4.50
2022-12-29T10:56:37.103Z,2.70
2022-12-29T10:59:25.070Z,1.60
2022-12-29T11:02:12.740Z,4.13
2022-12-29T11:05:04.934Z,1.13
2022-12-29T11:07:32.748Z,9.13
2022-12-29T11:10:42.258Z,4.50
2022-12-29T11:13:15.959Z,4.03
2022-12-29T11:15:43.915Z,4.37
2022-12-29T11:18:33.652Z,2.30
2022-12-29T11:21:03.727Z,4.90
2022-12-29T11:23:33.742Z,3.03
2022-12-29T11:26:13.140Z,5.53
2022-12-29T11:28:41.105Z,5.03
2022-12-29T11:31:09.092Z,5.13
2022-12-29T11:33:37.544Z,1.30
2022-12-29T11:36:04.638Z,2.10
2022-12-29T11:38:43.249Z,3.23
2022-12-29T11:41:14.487Z,2.87
2022-12-29T11:43:45.463Z,2.90
2022-12-29T11:46:20.399Z,3.13
2022-12-29T11:48:48.826Z,3.10
2022-12-29T11:51:25.421Z,4.27
2022-12-29T11:53:56.785Z,2.47
2022-12-29T11:56:40.360Z,3.27
2022-12-29T11:59:30.798Z,3.83
2022-12-29T12:01:59.587Z,5.17
2022-12-29T12:04:32.116Z,4.07
2022-12-29T12:07:19.331Z,1.50
2022-12-29T12:10:06.693Z,3.20
2022-12-29T12:13:07.827Z,3.70
2022-12-29T12:15:46.035Z,3.53
2022-12-29T12:18:14.898Z,3.03
2022-12-29T12:20:58.626Z,3.87
2022-12-29T12:24:16.079Z,2.73
2022-12-29T12:26:59.175Z,4.10
2022-12-29T12:29:35.150Z,3.80
2022-12-29T12:32:02.158Z,2.77
2022-12-29T12:34:38.207Z,4.20
2022-12-29T12:37:34.225Z,2.47
2022-12-29T12:40:19.655Z,2.80
2022-12-29T12:43:24.307Z,3.00
2022-12-29T12:46:20.513Z,7.70
2022-12-29T12:49:04.728Z,4.33
2022-12-29T12:51:36.961Z,4.03
2022-12-29T12:54:37.407Z,2.60
2022-12-29T12:57:17.763Z,4.10
2022-12-29T13:00:01.369Z,2.10
2022-12-29T13:03:04.433Z,2.23
2022-12-29T13:06:08.498Z,4.17
2022-12-29T13:08:59.013Z,2.57
2022-12-29T13:11:40.505Z,3.57
2022-12-29T13:14:37.493Z,1.67
2022-12-29T13:17:22.890Z,4.30
2022-12-29T13:20:06.547Z,4.87
2022-12-29T13:22:40.218Z,4.23
2022-12-29T13:25:42.927Z,4.33
2022-12-29T13:28:33.386Z,5.07
2022-12-29T13:31:03.108Z,7.90
2022-12-29T13:33:42.487Z,3.07
2022-12-29T13:36:40.563Z,3.07
2022-12-29T13:39:21.169Z,6.20
2022-12-29T13:41:57.922Z,2.43
2022-12-29T13:44:24.971Z,3.33
2022-12-29T13:46:52.684Z,3.07
2022-12-29T13:49:22.773Z,4.47
2022-12-29T13:51:53.519Z,6.60
2022-12-29T13:54:43.980Z,1.50
2022-12-29T13:57:21.431Z,2.20
2022-12-29T14:00:14.192Z,2.83
2022-12-29T14:02:41.421Z,7.03
2022-12-29T14:05:32.159Z,6.63
2022-12-29T14:08:04.704Z,7.07
2022-12-29T14:10:39.227Z,3.00
2022-12-29T14:13:12.064Z,2.53
2022-12-29T14:15:42.259Z,2.87
2022-12-29T14:18:18.979Z,7.20
2022-12-29T14:21:01.058Z,8.63
2022-12-29T14:23:41.039Z,4.80
2022-12-29T14:26:08.097Z,3.67
2022-12-29T14:28:37.140Z,4.33
2022-12-29T14:31:04.913Z,2.50
2022-12-29T14:33:33.652Z,3.20
2022-12-29T14:36:21.373Z,6.97
2022-12-29T14:38:49.442Z,4.13
2022-12-29T14:41:28.242Z,2.97
2022-12-29T14:44:11.060Z,6.50
2022-12-29T14:46:56.987Z,3.97
2022-12-29T14:49:30.720Z,4.73
2022-12-29T14:52:19.443Z,13.80
2022-12-29T14:54:52.549Z,2.20
2022-12-29T14:57:35.276Z,2.07
2022-12-29T15:00:07.599Z,3.47
2022-12-29T15:02:40.784Z,7.43
2022-12-29T15:05:34.860Z,3.73
2022-12-29T15:08:03.301Z,5.23
2022-12-29T15:10:38.107Z,2.83
2022-12-29T15:13:14.816Z,2.00
2022-12-29T15:15:41.850Z,2.83
2022-12-29T15:18:24.787Z,6.43
2022-12-29T15:20:54.781Z,5.10
2022-12-29T15:23:21.924Z,4.63
2022-12-29T15:25:53.974Z,3.63
2022-12-29T15:28:22.258Z,4.00
2022-12-29T15:30:56.842Z,4.90
2022-12-29T15:33:27.233Z,3.13
2022-12-29T15:35:56.715Z,3.50
2022-12-29T15:38:34.539Z,4.63
2022-12-29T15:41:07.380Z,3.33
2022-12-29T15:44:11.768Z,4.97
2022-12-29T15:46:38.858Z,3.23
2022-12-29T15:49:09.385Z,4.73
2022-12-29T15:51:39.138Z,3.87
2022-12-29T15:54:06.958Z,3.83
2022-12-29T15:56:34.354Z,3.33
2022-12-29T15:59:02.751Z,2.93
2022-12-29T16:01:35.042Z,7.90
2022-12-29T16:04:05.656Z,3.10
2022-12-29T16:06:37.400Z,2.73
2022-12-29T16:09:15.669Z,3.93
2022-12-29T16:11:51.586Z,4.37
2022-12-29T16:14:40.086Z,2.67
2022-12-29T16:17:07.293Z,6.50
2022-12-29T16:19:37.597Z,4.73
2022-12-29T16:22:12.131Z,2.87
2022-12-29T16:24:40.905Z,3.90
2022-12-29T16:27:15.076Z,3.40
2022-12-29T16:29:42.137Z,3.00
2022-12-29T16:32:30.385Z,4.07
2022-12-29T16:35:20.545Z,6.30
2022-12-29T16:37:47.881Z,3.00
2022-12-29T16:40:31.868Z,3.50
2022-12-29T16:43:03.378Z,4.57
2022-12-29T16:45:53.187Z,3.73
2022-12-29T16:48:22.487Z,3.00
2022-12-29T16:50:50.441Z,1.63
2022-12-29T16:53:30.393Z,2.07
2022-12-29T16:56:01.466Z,2.93
2022-12-29T16:58:31.584Z,5.23
2022-12-29T17:01:01.127Z,2.07
2022-12-29T17:03:39.627Z,2.07
2022-12-29T17:06:06.952Z,6.47
2022-12-29T17:08:41.901Z,1.63
2022-12-29T17:11:37.996Z,2.93
2022-12-29T17:14:05.041Z,6.13
2022-12-29T17:16:32.049Z,5.60
2022-12-29T17:18:59.116Z,3.83
2022-12-29T17:21:26.158Z,3.87
2022-12-29T17:23:53.203Z,5.97
2022-12-29T17:26:20.308Z,2.93
2022-12-29T17:28:47.852Z,5.03
2022-12-29T17:31:15.176Z,6.07
2022-12-29T17:33:43.424Z,3.40
2022-12-29T17:36:11.538Z,1.47
2022-12-29T17:38:38.312Z,3.20
2022-12-29T17:41:05.503Z,5.10
2022-12-29T17:43:36.996Z,0.80
2022-12-29T17:46:06.846Z,2.33
2022-12-29T17:48:34.118Z,4.13
2022-12-29T17:51:01.314Z,3.20
2022-12-29T17:53:29.906Z,6.43
2022-12-29T17:55:57.060Z,4.70
2022-12-29T17:58:28.647Z,3.20
2022-12-29T18:00:58.125Z,2.63
2022-12-29T18:03:27.131Z,4.57
2022-12-29T18:05:54.465Z,4.13
2022-12-29T18:08:21.852Z,4.90
2022-12-29T18:10:50.703Z,4.33
2022-12-29T18:13:25.162Z,1.83
2022-12-29T18:15:53.496Z,8.00
2022-12-29T18:18:26.182Z,6.37
2022-12-29T18:20:55.142Z,6.13
2022-12-29T18:23:24.672Z,3.07
2022-12-29T18:26:07.668Z,1.67
2022-12-29T18:28:34.748Z,6.23
2022-12-29T18:31:02.071Z,3.40
2022-12-29T18:33:29.831Z,2.30
2022-12-29T18:36:04.852Z,4.07
2022-12-29T18:38:31.896Z,2.53
2022-12-29T18:40:59.888Z,2.33
2022-12-29T18:43:26.956Z,2.47
2022-12-29T18:45:53.974Z,2.27
2022-12-29T18:48:21.232Z,3.17
2022-12-29T18:50:53.110Z,3.00
2022-12-29T18:53:22.775Z,1.93
2022-12-29T18:55:50.007Z,9.17
2022-12-29T18:58:17.059Z,2.50
2022-12-29T19:00:44.693Z,3.53
2022-12-29T19:03:14.205Z,5.50
2022-12-29T19:05:43.262Z,7.03
2022-12-29T19:08:11.059Z,2.00
2022-12-29T19:10:38.524Z,1.60
2022-12-29T19:13:06.062Z,1.10
2022-12-29T19:15:40.134Z,2.23
2022-12-29T19:18:42.494Z,2.20
2022-12-29T19:20:56.807Z,1.37
2022-12-29T19:23:26.351Z,2.87
2022-12-29T19:25:54.763Z,1.00
2022-12-29T19:28:26.883Z,6.30
2022-12-29T19:30:58.175Z,2.20
2022-12-29T19:33:25.446Z,1.07
2022-12-29T19:35:52.840Z,7.03
2022-12-29T19:38:19.940Z,1.23
2022-12-29T19:40:48.766Z,2.53
2022-12-29T19:43:16.086Z,2.67
2022-12-29T19:45:44.844Z,1.63
2022-12-29T19:48:14.994Z,2.20
2022-12-29T19:50:41.782Z,3.67
2022-12-29T19:53:08.358Z,2.60
2022-12-29T19:55:34.988Z,1.23
2022-12-29T19:58:02.095Z,4.83
2022-12-29T20:00:29.258Z,2.93
2022-12-29T20:02:56.423Z,5.10
2022-12-29T20:05:23.607Z,3.07
2022-12-29T20:07:50.658Z,2.10
2022-12-29T20:10:17.680Z,2.00
2022-12-29T20:12:44.707Z,3.30
2022-12-29T20:15:11.892Z,5.30
2022-12-29T20:18:11.435Z,5.00
2022-12-29T20:20:25.929Z,2.20
2022-12-29T20:22:52.959Z,2.37
2022-12-29T20:25:44.071Z,4.30
2022-12-29T20:28:08.355Z,3.10
2022-12-29T20:30:35.430Z,8.57
2022-12-29T20:33:07.753Z,5.53
2022-12-29T20:35:35.579Z,5.03
2022-12-29T20:38:02.675Z,4.53
2022-12-29T20:40:29.775Z,9.80
2022-12-29T20:42:56.935Z,8.83
2022-12-29T20:45:24.126Z,11.67
2022-12-29T20:47:51.249Z,17.83
2022-12-29T20:50:18.440Z,7.87
2022-12-29T20:52:46.666Z,8.60
2022-12-29T20:55:13.304Z,10.90
2022-12-29T20:58:14.227Z,6.37
2022-12-29T21:00:30.156Z,10.13
2022-12-29T21:02:58.063Z,8.77
2022-12-29T21:05:25.889Z,4.60
2022-12-29T21:07:53.855Z,6.37
2022-12-29T21:10:21.071Z,10.70
2022-12-29T21:12:48.543Z,6.47
2022-12-29T21:15:15.843Z,14.00
2022-12-29T21:17:43.889Z,6.47
2022-12-29T21:20:19.809Z,4.13
2022-12-29T21:22:48.158Z,10.87
2022-12-29T21:25:15.237Z,7.77
2022-12-29T21:27:45.704Z,12.90
2022-12-29T21:30:13.216Z,13.13
2022-12-29T21:32:40.933Z,7.93
2022-12-29T21:35:09.058Z,11.00
2022-12-29T21:37:36.208Z,9.57
2022-12-29T21:40:04.498Z,12.60
2022-12-29T21:42:31.655Z,7.57
2022-12-29T21:45:20.898Z,6.40
2022-12-29T21:48:07.289Z,9.33
2022-12-29T21:50:34.482Z,11.53
2022-12-29T21:53:01.049Z,8.53
2022-12-29T21:55:28.076Z,8.37
2022-12-29T21:58:14.148Z,6.17
2022-12-29T22:01:00.050Z,7.37
2022-12-29T22:03:45.763Z,4.90
2022-12-29T22:06:31.500Z,8.23
2022-12-29T22:09:17.339Z,7.17
2022-12-29T22:12:03.203Z,11.73
2022-12-29T22:14:29.788Z,5.17
2022-12-29T22:16:56.829Z,7.33
2022-12-29T22:19:23.936Z,5.93
2022-12-29T22:21:50.941Z,6.50
2022-12-29T22:24:18.016Z,7.93
2022-12-29T22:26:45.053Z,8.80
2022-12-29T22:29:12.163Z,6.80
2022-12-29T22:31:39.210Z,8.40
2022-12-29T22:34:06.244Z,6.67
2022-12-29T22:36:33.540Z,4.67
2022-12-29T22:39:00.611Z,6.37
2022-12-29T22:41:27.635Z,9.63
2022-12-29T22:43:55.146Z,9.87
2022-12-29T22:46:22.393Z,9.67
2022-12-29T22:48:49.687Z,8.53
2022-12-29T22:51:16.824Z,6.20
2022-12-29T22:53:45.394Z,11.87
2022-12-29T22:56:13.259Z,5.33
2022-12-29T22:58:40.888Z,9.93
2022-12-29T23:01:07.933Z,6.40
2022-12-29T23:03:34.937Z,6.97
2022-12-29T23:06:04.211Z,3.87
2022-12-29T23:08:36.460Z,7.07
2022-12-29T23:11:04.776Z,4.77
2022-12-29T23:13:31.826Z,8.37
2022-12-29T23:15:58.712Z,7.97
2022-12-29T23:18:26.034Z,6.70
2022-12-29T23:20:53.130Z,6.33
2022-12-29T23:23:48.177Z,6.40
2022-12-29T23:26:16.419Z,10.60
2022-12-29T23:28:43.482Z,8.40
2022-12-29T23:31:10.473Z,7.80
2022-12-29T23:33:37.625Z,6.73
2022-12-29T23:36:04.743Z,13.83
2022-12-29T23:38:31.799Z,10.30
2022-12-29T23:40:58.857Z,11.40
2022-12-29T23:43:25.958Z,9.63
2022-12-29T23:45:52.976Z,12.43
2022-12-29T23:48:19.823Z,7.20
2022-12-29T23:50:46.990Z,10.50
2022-12-29T23:53:14.163Z,8.30
2022-12-29T23:55:42.938Z,7.10
2022-12-29T23:58:10.244Z,14.83
